createdAt,value
2019-02-18T00:04:51.053Z,7.43
2019-02-18T00:09:57.078Z,7.68
2019-02-18T00:15:03.139Z,11.57
2019-02-18T00:20:09.181Z,11.41
2019-02-18T00:25:15.315Z,7.96
2019-02-18T00:30:21.372Z,7.82
2019-02-18T00:35:27.397Z,10.92
2019-02-18T00:40:33.419Z,7.30
2019-02-18T00:45:39.454Z,10.53
2019-02-18T00:50:45.491Z,7.20
2019-02-18T00:55:51.503Z,7.23
2019-02-18T01:00:57.626Z,6.66
2019-02-18T01:06:03.707Z,7.00
2019-02-18T01:11:09.747Z,6.34
2019-02-18T01:16:15.752Z,10.10
2019-02-18T01:21:21.780Z,6.61
2019-02-18T01:26:27.802Z,6.69
2019-02-18T01:31:33.773Z,6.19
2019-02-18T01:36:42.831Z,6.01
2019-02-18T01:41:48.829Z,6.22
2019-02-18T01:46:54.832Z,6.04
2019-02-18T01:52:00.832Z,6.06
2019-02-18T01:57:06.905Z,7.88
2019-02-18T02:02:12.920Z,9.14
2019-02-18T02:07:18.908Z,6.06
2019-02-18T02:12:24.891Z,6.24
2019-02-18T02:17:30.860Z,9.54
2019-02-18T02:22:36.927Z,9.72
2019-02-18T02:27:42.922Z,6.28
2019-02-18T02:32:49.054Z,9.38
2019-02-18T02:37:55.055Z,6.80
2019-02-18T02:43:01.051Z,10.02
2019-02-18T02:48:07.110Z,6.68
2019-02-18T02:53:13.031Z,6.97
2019-02-18T02:58:19.027Z,7.06
2019-02-18T03:03:25.105Z,6.55
2019-02-18T03:08:31.119Z,6.66
2019-02-18T03:13:37.196Z,6.92
2019-02-18T03:18:43.209Z,7.06
2019-02-18T03:23:49.193Z,6.95
2019-02-18T03:28:55.206Z,6.96
2019-02-18T03:34:01.211Z,6.99
2019-02-18T03:39:07.189Z,6.93
2019-02-18T03:44:13.159Z,7.19
2019-02-18T03:49:19.196Z,7.20
2019-02-18T03:54:25.152Z,10.35
2019-02-18T03:59:31.170Z,11.46
2019-02-18T04:04:37.192Z,7.38
2019-02-18T04:09:43.216Z,7.19
2019-02-18T04:14:49.223Z,6.86
2019-02-18T04:19:55.209Z,7.05
2019-02-18T04:25:01.218Z,9.78
2019-02-18T04:30:07.239Z,7.07
2019-02-18T04:35:13.245Z,7.22
2019-02-18T04:40:19.223Z,7.14
2019-02-18T04:45:25.213Z,7.08
2019-02-18T04:50:31.257Z,7.56
2019-02-18T04:55:37.286Z,11.08
2019-02-18T05:00:43.295Z,7.53
2019-02-18T05:05:49.296Z,10.65
2019-02-18T05:10:55.296Z,7.03
2019-02-18T05:16:01.341Z,7.67
2019-02-18T05:21:07.342Z,7.54
2019-02-18T05:26:13.485Z,7.52
2019-02-18T05:31:19.484Z,7.60
2019-02-18T05:36:25.538Z,7.86
2019-02-18T05:41:31.662Z,8.32
2019-02-18T05:46:37.585Z,6.94
2019-02-18T05:51:43.603Z,6.96
2019-02-18T05:56:49.601Z,7.40
2019-02-18T06:01:55.596Z,11.54
2019-02-18T06:07:01.639Z,7.35
2019-02-18T06:12:07.665Z,11.54
2019-02-18T06:17:13.678Z,7.76
2019-02-18T06:22:19.709Z,7.25
2019-02-18T06:27:25.732Z,7.19
2019-02-18T06:32:31.701Z,10.50
2019-02-18T06:37:37.830Z,12.44
2019-02-18T06:42:43.844Z,6.67
2019-02-18T06:47:49.914Z,7.77
2019-02-18T06:52:55.899Z,6.91
2019-02-18T06:58:01.899Z,12.23
2019-02-18T07:03:07.923Z,6.46
2019-02-18T07:08:14.114Z,6.54
2019-02-18T07:13:20.134Z,6.70
2019-02-18T07:18:26.126Z,6.47
2019-02-18T07:23:32.193Z,6.75
2019-02-18T07:28:38.197Z,6.83
2019-02-18T07:33:44.200Z,6.33
2019-02-18T07:38:50.352Z,9.23
2019-02-18T07:43:56.527Z,6.47
2019-02-18T07:49:02.543Z,7.95
2019-02-18T07:54:10.251Z,6.38
2019-02-18T07:59:14.095Z,6.76
2019-02-18T08:04:20.149Z,6.88
2019-02-18T08:09:26.160Z,6.57
2019-02-18T08:14:32.200Z,6.50
2019-02-18T08:19:38.194Z,6.58
2019-02-18T08:24:44.218Z,6.69
2019-02-18T08:29:50.239Z,10.50
2019-02-18T08:34:56.207Z,7.08
2019-02-18T08:40:02.201Z,7.34
2019-02-18T08:45:08.169Z,7.04
2019-02-18T08:50:14.180Z,5.87
2019-02-18T08:55:20.210Z,11.06
2019-02-18T09:00:26.281Z,5.97
2019-02-18T09:05:32.281Z,6.68
2019-02-18T09:10:38.890Z,6.60
2019-02-18T09:15:44.902Z,9.51
2019-02-18T09:20:50.903Z,6.07
2019-02-18T09:25:56.865Z,6.04
2019-02-18T09:31:02.877Z,6.09
2019-02-18T09:36:08.868Z,8.62
2019-02-18T09:41:14.980Z,5.40
2019-02-18T09:46:20.977Z,6.26
2019-02-18T09:51:27.048Z,5.93
2019-02-18T09:56:33.246Z,5.62
2019-02-18T10:01:39.278Z,9.04
2019-02-18T10:06:45.280Z,5.70
2019-02-18T10:11:51.304Z,5.63
2019-02-18T10:16:57.287Z,5.59
2019-02-18T10:22:03.318Z,5.68
2019-02-18T10:27:09.364Z,5.37
2019-02-18T10:32:15.376Z,5.36
2019-02-18T10:37:21.358Z,5.56
2019-02-18T10:42:27.382Z,5.60
2019-02-18T10:47:33.433Z,5.91
2019-02-18T10:52:39.593Z,8.28
2019-02-18T10:57:45.590Z,5.64
2019-02-18T11:02:51.630Z,8.34
2019-02-18T11:07:58.721Z,5.92
2019-02-18T11:13:04.720Z,5.44
2019-02-18T11:18:10.749Z,5.23
2019-02-18T11:23:16.731Z,5.24
2019-02-18T11:28:22.728Z,4.87
2019-02-18T11:33:28.751Z,5.17
2019-02-18T11:38:34.753Z,7.60
2019-02-18T11:43:40.804Z,6.53
2019-02-18T11:48:46.827Z,7.35
2019-02-18T11:53:52.868Z,5.68
2019-02-18T11:58:58.869Z,5.40
2019-02-18T12:04:04.864Z,5.53
2019-02-18T12:09:10.886Z,4.98
2019-02-18T12:14:16.926Z,5.27
2019-02-18T12:19:22.866Z,5.12
2019-02-18T12:24:28.849Z,4.58
2019-02-18T12:29:34.910Z,4.53
2019-02-18T12:34:40.983Z,4.72
2019-02-18T12:39:47.037Z,4.65
2019-02-18T12:44:53.032Z,4.91
2019-02-18T12:49:59.017Z,4.64
2019-02-18T12:55:05.269Z,4.54
2019-02-18T13:00:11.353Z,6.17
2019-02-18T13:05:17.225Z,4.60
2019-02-18T13:10:23.238Z,4.59
2019-02-18T13:15:29.314Z,7.08
2019-02-18T13:20:35.292Z,6.37
2019-02-18T13:25:47.422Z,6.37
2019-02-18T13:30:46.820Z,4.88
2019-02-18T13:35:52.855Z,6.90
2019-02-18T13:40:58.911Z,4.42
2019-02-18T13:46:05.059Z,4.68
2019-02-18T13:51:11.127Z,4.44
2019-02-18T13:56:17.203Z,4.45
2019-02-18T14:01:23.178Z,4.92
2019-02-18T14:06:29.181Z,3.15
2019-02-18T14:11:35.277Z,2.97
2019-02-18T14:16:41.458Z,2.85
2019-02-18T14:21:47.450Z,2.61
2019-02-18T14:26:53.542Z,2.97
2019-02-18T14:31:59.552Z,2.89
2019-02-18T14:37:05.608Z,3.15
2019-02-18T14:42:11.731Z,3.01
2019-02-18T14:47:17.811Z,3.05
2019-02-18T14:52:23.805Z,3.02
2019-02-18T14:57:29.843Z,3.51
2019-02-18T15:02:36.063Z,3.51
2019-02-18T15:07:42.092Z,3.58
2019-02-18T15:12:48.241Z,3.29
2019-02-18T15:17:54.279Z,3.34
2019-02-18T15:23:00.311Z,3.26
2019-02-18T15:28:06.298Z,3.13
2019-02-18T15:33:12.308Z,2.92
2019-02-18T15:38:19.276Z,2.21
2019-02-18T15:43:25.258Z,2.24
2019-02-18T15:48:31.335Z,3.16
2019-02-18T15:53:37.325Z,2.71
2019-02-18T15:58:43.371Z,2.50
2019-02-18T16:03:49.420Z,2.98
2019-02-18T16:08:55.597Z,2.77
2019-02-18T16:14:01.710Z,3.02
2019-02-18T16:19:07.744Z,3.43
2019-02-18T16:24:19.942Z,3.21
2019-02-18T16:29:19.608Z,3.16
2019-02-18T16:34:25.691Z,4.02
2019-02-18T16:39:31.679Z,3.59
2019-02-18T16:44:37.667Z,3.45
2019-02-18T16:49:43.691Z,3.23
2019-02-18T16:54:49.838Z,3.64
2019-02-18T16:59:55.892Z,3.43
2019-02-18T17:05:01.994Z,3.26
2019-02-18T17:10:08.073Z,4.18
2019-02-18T17:15:14.385Z,4.04
2019-02-18T17:20:20.411Z,3.73
2019-02-18T17:25:26.479Z,3.77
2019-02-18T17:30:32.531Z,3.67
2019-02-18T17:35:38.538Z,3.83
2019-02-18T17:40:44.689Z,3.97
2019-02-18T17:45:50.750Z,3.92
2019-02-18T17:50:56.775Z,5.17
2019-02-18T17:56:02.887Z,3.75
2019-02-18T18:01:08.996Z,5.79
2019-02-18T18:06:15.190Z,3.57
2019-02-18T18:11:21.239Z,3.55
2019-02-18T18:16:28.193Z,3.68
2019-02-18T18:21:32.850Z,3.75
2019-02-18T18:26:39.023Z,4.57
2019-02-18T18:31:45.082Z,4.93
2019-02-18T18:36:51.119Z,3.73
2019-02-18T18:41:57.259Z,4.01
2019-02-18T18:47:03.271Z,5.36
2019-02-18T18:52:09.356Z,3.40
2019-02-18T18:57:15.405Z,4.01
2019-02-18T19:02:21.958Z,3.32
2019-02-18T19:07:27.973Z,4.59
2019-02-18T19:12:35.961Z,3.36
2019-02-18T19:17:43.057Z,2.94
2019-02-18T19:22:49.046Z,5.05
2019-02-18T19:27:55.566Z,4.27
2019-02-18T19:33:01.631Z,4.49
2019-02-18T19:38:07.740Z,7.02
2019-02-18T19:43:14.626Z,8.24
2019-02-18T19:48:19.669Z,3.96
2019-02-18T19:53:25.701Z,3.24
2019-02-18T19:58:31.790Z,2.77
2019-02-18T20:03:37.832Z,2.90
2019-02-18T20:08:43.902Z,2.87
2019-02-18T20:13:49.922Z,2.53
2019-02-18T20:18:55.503Z,3.86
2019-02-18T20:24:01.576Z,3.12
2019-02-18T20:29:07.794Z,3.72
2019-02-18T20:34:13.983Z,2.96
2019-02-18T20:39:20.126Z,2.78
2019-02-18T20:44:26.165Z,4.40
2019-02-18T20:49:32.334Z,3.18
2019-02-18T20:54:38.416Z,4.07
2019-02-18T20:59:44.521Z,3.54
2019-02-18T21:04:50.775Z,4.92
2019-02-18T21:09:56.859Z,3.24
2019-02-18T21:15:03.001Z,4.12
2019-02-18T21:20:08.991Z,3.80
2019-02-18T21:25:15.096Z,4.09
2019-02-18T21:30:21.419Z,4.18
2019-02-18T21:35:27.518Z,5.26
2019-02-18T21:40:33.640Z,5.31
2019-02-18T21:45:39.740Z,8.80
2019-02-18T21:50:45.723Z,5.23
2019-02-18T21:55:51.735Z,5.31
2019-02-18T22:00:57.788Z,5.39
2019-02-18T22:06:03.897Z,5.16
2019-02-18T22:11:09.961Z,5.46
2019-02-18T22:16:15.999Z,5.71
2019-02-18T22:21:22.163Z,5.22
2019-02-18T22:26:28.165Z,4.79
2019-02-18T22:31:34.143Z,4.91
2019-02-18T22:36:40.178Z,5.23
2019-02-18T22:41:46.245Z,5.74
2019-02-18T22:46:52.272Z,5.82
2019-02-18T22:51:58.268Z,5.83
2019-02-18T22:57:04.302Z,9.09
2019-02-18T23:02:10.312Z,6.23
2019-02-18T23:07:16.359Z,8.24
2019-02-18T23:12:22.388Z,6.13
2019-02-18T23:17:28.552Z,5.30
2019-02-18T23:22:34.639Z,5.85
2019-02-18T23:27:40.936Z,5.55
2019-02-18T23:32:47.023Z,5.47
2019-02-18T23:37:53.097Z,5.50
2019-02-18T23:42:59.088Z,5.22
2019-02-18T23:48:05.079Z,5.27
2019-02-18T23:53:11.111Z,7.51
2019-02-18T23:58:17.114Z,5.38
